Change the Weather History Date:

Saturday, February 2, 2013

  Actual Average (KTYR) Record (KTYR)
Temperature  
Mean Temperature 54 °F 48 °F  
Max Temperature 66 °F 58 °F 83 °F (1989)
Min Temperature 42 °F 38 °F 2 °F (1951)
Degree Days  
Heating Degree Days 11 17  
Month to date heating degree days 34  
Since 1 July heating degree days 1512  
Cooling Degree Days 0 0  
Month to date cooling degree days 0  
Year to date cooling degree days 4  
Growing Degree Days 4 (Base 50)    
Moisture  
Dew Point 40 °F    
Average Humidity 62    
Maximum Humidity 82    
Minimum Humidity 30    
Precipitation  
Precipitation 0.00 in 0.12 in 2.39 in (1975)
Month to date precipitation 0.24  
Year to date precipitation 3.30  
Snow  
Snow 0.00 in - - ()
Month to date snowfall  
Since 1 July snowfall  
Snow Depth -    
Sea Level Pressure  
Sea Level Pressure 30.24 in    
Wind  
Wind Speed 5 mph (SW)    
Max Wind Speed 14 mph    
Max Gust Speed 20 mph    
Visibility 10 miles    
Events      
T = Trace of Precipitation, MM = Missing Value Source: NWS Daily Summary

Daily Weather History Graph

Daily Weather History Graph

Search for Another Location

Airport or City:

Trip Planner

Search our weather history database for the weather conditions in past years. The results will help you decide how hot, cold, wet, or windy it might be!

Date:

Astronomy

Feb. 02, 2013 Rise Set
Actual Time 7:15 AM CST 5:55 PM CST
Civil Twilight 6:50 AM CST 6:21 PM CST
Nautical Twilight 6:20 AM CST 6:51 PM CST
Astronomical Twilight 5:51 AM CST 7:20 PM CST
Moon No Moon Rise 10:52 AM CST
Length of Visible Light 11h 31m
Length of Day
10h 40m
Waning Gibbous, 59% of the Moon is Illuminated
Feb 2
Waning Gibbous
Feb 3
Last Quarter
Feb 10
New
Feb 17
First Quarter
Feb 25
Full

Hourly Weather History & Observations

Time (CST) Temp. Windchill Dew Point Humidity Pressure Visibility Wind Dir Wind Speed Gust Speed Precip Events Conditions
12:15 AM 48.2 °F - 39.2 °F 71% 30.22 in 10.0 mi SE 4.6 mph - N/A   Unknown
12:35 AM 46.4 °F 45.2 °F 39.2 °F 76% 30.21 in 10.0 mi ESE 3.5 mph - N/A   Unknown
12:55 AM 44.6 °F 43.1 °F 37.4 °F 76% 30.21 in 10.0 mi SE 3.5 mph - N/A   Unknown
1:15 AM 44.6 °F 43.1 °F 39.2 °F 81% 30.20 in 10.0 mi SE 3.5 mph - N/A   Unknown
1:35 AM 44.6 °F 42.2 °F 39.2 °F 81% 30.20 in 10.0 mi SSE 4.6 mph - N/A   Unknown
1:55 AM 46.4 °F 43.5 °F 37.4 °F 71% 30.20 in 10.0 mi SSE 5.8 mph - N/A   Unknown
2:15 AM 48.2 °F - 37.4 °F 66% 30.20 in 10.0 mi SSE 5.8 mph - N/A   Unknown
2:35 AM 50.0 °F - 39.2 °F 66% 30.19 in 10.0 mi South 5.8 mph - N/A   Unknown
2:55 AM 50.0 °F - 39.2 °F 66% 30.19 in 10.0 mi South 6.9 mph - N/A   Unknown
3:15 AM 50.0 °F - 39.2 °F 66% 30.19 in 10.0 mi South 5.8 mph - N/A   Unknown
3:35 AM 50.0 °F - 39.2 °F 66% 30.18 in 10.0 mi South 5.8 mph - N/A   Unknown
3:55 AM 50.0 °F - 39.2 °F 66% 30.18 in 10.0 mi South 4.6 mph - N/A   Unknown
4:15 AM 50.0 °F - 39.2 °F 66% 30.18 in 10.0 mi South 4.6 mph - N/A   Unknown
4:35 AM 50.0 °F - 39.2 °F 66% 30.18 in 10.0 mi South 5.8 mph - N/A   Unknown
4:55 AM 50.0 °F - 41.0 °F 71% 30.19 in 10.0 mi South 5.8 mph - N/A   Unknown
5:15 AM 48.2 °F - 41.0 °F 76% 30.19 in 10.0 mi SSW 4.6 mph - N/A   Unknown
5:35 AM 48.2 °F - 41.0 °F 76% 30.19 in 10.0 mi South 4.6 mph - N/A   Unknown
5:55 AM 48.2 °F - 41.0 °F 76% 30.19 in 10.0 mi South 4.6 mph - N/A   Unknown
6:15 AM 48.2 °F - 42.8 °F 82% 30.19 in 10.0 mi SSW 5.8 mph - N/A   Unknown
6:35 AM 48.2 °F - 42.8 °F 82% 30.20 in 10.0 mi South 3.5 mph - N/A   Unknown
6:55 AM 48.2 °F - 42.8 °F 82% 30.21 in 10.0 mi SSW 3.5 mph - N/A   Unknown
7:15 AM 48.2 °F - 42.8 °F 82% 30.22 in 10.0 mi Calm Calm - N/A   Unknown
7:35 AM 48.2 °F - 42.8 °F 82% 30.22 in 10.0 mi SSW 3.5 mph - N/A   Unknown
7:55 AM 48.2 °F - 42.8 °F 82% 30.22 in 10.0 mi SSW 6.9 mph - N/A   Unknown
8:15 AM 51.8 °F - 44.6 °F 76% 30.23 in 10.0 mi SSW 6.9 mph - N/A   Unknown
8:35 AM 51.8 °F - 44.6 °F 76% 30.23 in 10.0 mi SSW 6.9 mph - N/A   Unknown
8:55 AM 53.6 °F - 44.6 °F 72% 30.24 in 10.0 mi SW 5.8 mph - N/A   Unknown
9:15 AM 55.4 °F - 46.4 °F 72% 30.25 in 10.0 mi SW 4.6 mph - N/A   Unknown
9:35 AM 57.2 °F - 46.4 °F 67% 30.25 in 9.0 mi SW 8.1 mph - N/A   Unknown
9:55 AM 60.8 °F - 48.2 °F 63% 30.26 in 10.0 mi SW 11.5 mph 17.3 mph N/A   Unknown
10:15 AM 60.8 °F - 48.2 °F 63% 30.26 in 10.0 mi SW 6.9 mph - N/A   Unknown
10:35 AM 62.6 °F - 48.2 °F 59% 30.26 in 10.0 mi WSW 9.2 mph 19.6 mph N/A   Unknown
10:55 AM 64.4 °F - 50.0 °F 59% 30.26 in 10.0 mi SW 9.2 mph 18.4 mph N/A   Unknown
11:15 AM 64.4 °F - 48.2 °F 56% 30.26 in 10.0 mi West 13.8 mph 19.6 mph N/A   Unknown
11:35 AM 64.4 °F - 48.2 °F 56% 30.25 in 10.0 mi West 8.1 mph - N/A   Unknown
11:55 AM 64.4 °F - 46.4 °F 52% 30.25 in 10.0 mi NW 9.2 mph - N/A   Unknown
12:15 PM 64.4 °F - 46.4 °F 52% 30.25 in 10.0 mi NW 9.2 mph - N/A   Unknown
12:35 PM 64.4 °F - 44.6 °F 49% 30.24 in 10.0 mi NW 11.5 mph 18.4 mph N/A   Unknown
12:55 PM 64.4 °F - 44.6 °F 49% 30.24 in 10.0 mi NW 10.4 mph - N/A   Unknown
1:15 PM 64.4 °F - 46.4 °F 52% 30.24 in 10.0 mi NW 8.1 mph - N/A   Unknown
1:35 PM 64.4 °F - 46.4 °F 52% 30.22 in 10.0 mi North 9.2 mph - N/A   Unknown
1:55 PM 64.4 °F - 44.6 °F 49% 30.22 in 10.0 mi North 6.9 mph - N/A   Unknown
2:15 PM 64.4 °F - 44.6 °F 49% 30.22 in 10.0 mi North 9.2 mph - N/A   Unknown
2:35 PM 66.2 °F - 44.6 °F 46% 30.22 in 9.0 mi NW 6.9 mph - N/A   Unknown
2:55 PM 66.2 °F - 42.8 °F 43% 30.22 in 10.0 mi NW 5.8 mph - N/A   Unknown
3:15 PM 66.2 °F - 42.8 °F 43% 30.22 in 10.0 mi NNW 9.2 mph - N/A   Unknown
3:35 PM 66.2 °F - 42.8 °F 43% 30.22 in 10.0 mi NW 6.9 mph - N/A   Unknown
3:55 PM 66.2 °F - 42.8 °F 43% 30.22 in 10.0 mi NW 6.9 mph - N/A   Unknown
4:15 PM 66.2 °F - 39.2 °F 37% 30.22 in 10.0 mi WNW 5.8 mph - N/A   Unknown
4:35 PM 66.2 °F - 33.8 °F 30% 30.23 in 10.0 mi WNW 5.8 mph - N/A   Unknown
4:55 PM 66.2 °F - 33.8 °F 30% 30.23 in 10.0 mi NNW 8.1 mph - N/A   Unknown
5:35 PM 62.6 °F - 33.8 °F 34% 30.24 in 10.0 mi NW 5.8 mph - N/A   Unknown
5:55 PM 60.8 °F - 33.8 °F 36% 30.25 in 10.0 mi NW 5.8 mph - N/A   Unknown
6:15 PM 57.2 °F - 33.8 °F 41% 30.25 in 10.0 mi NW 3.5 mph - N/A   Unknown
6:35 PM 55.4 °F - 35.6 °F 47% 30.25 in 10.0 mi Calm Calm - N/A   Unknown
6:55 PM 55.4 °F - 33.8 °F 44% 30.26 in 10.0 mi Calm Calm - N/A   Unknown
7:15 PM 51.8 °F - 35.6 °F 54% 30.26 in 10.0 mi Calm Calm - N/A   Unknown
7:35 PM 51.8 °F - 35.6 °F 54% 30.27 in 10.0 mi Calm Calm - N/A   Unknown
7:55 PM 48.2 °F - 35.6 °F 62% 30.28 in 10.0 mi Calm Calm - N/A   Unknown
8:15 PM 48.2 °F - 35.6 °F 62% 30.29 in 10.0 mi Calm Calm - N/A   Unknown
8:35 PM 48.2 °F - 35.6 °F 62% 30.29 in 10.0 mi Calm Calm - N/A   Unknown
8:55 PM 48.2 °F - 35.6 °F 62% 30.30 in 10.0 mi Calm Calm - N/A   Unknown
9:15 PM 48.2 °F - 35.6 °F 62% 30.30 in 10.0 mi Calm Calm - N/A   Unknown
9:35 PM 48.2 °F - 35.6 °F 62% 30.31 in 10.0 mi Calm Calm - N/A   Unknown
9:55 PM 46.4 °F - 35.6 °F 66% 30.31 in 10.0 mi Calm Calm - N/A   Unknown
10:15 PM 46.4 °F - 35.6 °F 66% 30.31 in 10.0 mi Calm Calm - N/A   Unknown
10:35 PM 44.6 °F - 35.6 °F 71% 30.31 in 10.0 mi Calm Calm - N/A   Unknown
10:55 PM 42.8 °F - 35.6 °F 76% 30.32 in 10.0 mi Calm Calm - N/A   Unknown
11:15 PM 42.8 °F - 35.6 °F 76% 30.33 in 10.0 mi Calm Calm - N/A   Unknown
11:35 PM 42.8 °F - 33.8 °F 70% 30.32 in 10.0 mi Calm Calm - N/A   Unknown
11:55 PM 42.8 °F - 33.8 °F 70% 30.32 in 10.0 mi Calm Calm - N/A   Unknown